Latest Weather Observations for Tasman Island

IDT60801

Issued at 7:32 pm EDT Wednesday 22 February 2017 (issued every 30 minutes, with the page automatically refreshed every 10 minutes)

About weather observations | Map of weather stations | Latest weather observations for TAS | Other Formats
Station Details ID: 094155 Name: TASMAN ISLAND Lat: -43.24 Lon: 148.00 Height: 240.0 m
Data from the previous 72 hours. | See also: Recent months at Tasman Island
Date/Time
EDT
Temp
°C
App
Temp
°C
Dew
Point
°C
Rel
Hum
%
Delta-T
°C
Wind Press
QNH
hPa
Press
MSL
hPa
Rain since
9am
mm
Dir  Spd
km/h
Gust
km/h
Spd
kts
Gust
kts
22/07:30pm 17.2 9.8 14.3 83 1.7 N 46 63 25 34 1010.4 1010.0 0.0
22/07:27pm 17.2 9.1 14.3 83 1.7 N 50 65 27 35 1010.3 1009.9 0.0
22/07:00pm 16.7 6.3 14.9 89 1.1 N 63 78 34 42 1010.1 1009.7 0.0
22/06:30pm 16.8 7.5 14.8 88 1.2 N 57 76 31 41 1010.9 1010.6 0.0
22/06:00pm 16.9 8.5 14.5 86 1.4 N 52 65 28 35 1010.7 1010.3 0.0
22/05:30pm 17.3 9.0 14.8 85 1.5 N 52 61 28 33 1011.3 1011.0 0.0
22/05:00pm 17.6 10.2 14.3 81 1.9 NNE 46 61 25 33 1011.6 1011.3 0.0
22/04:30pm 17.6 10.5 13.5 77 2.3 NNE 43 54 23 29 1012.1 1011.8 0.0
22/04:00pm 17.5 9.6 12.6 73 2.8 N 46 57 25 31 1012.2 1011.9 0.0
22/03:30pm 16.8 10.4 12.1 74 2.6 NNE 37 50 20 27 1012.8 1012.5 0.0
22/03:00pm 17.3 11.0 12.2 72 2.8 NNE 37 50 20 27 1013.3 1013.0 0.0
22/02:30pm 17.8 11.3 11.8 68 3.3 N 37 46 20 25 1013.7 1013.4 0.0
22/02:00pm 17.5 12.5 11.1 66 3.5 NNE 28 43 15 23 1013.8 1013.5 0.0
22/01:30pm 18.0 14.1 10.9 63 3.9 NNE 22 39 12 21 1014.0 1013.7 0.0
22/01:00pm 17.5 13.1 11.8 69 3.2 NNE 26 35 14 19 1014.6 1014.3 0.0
22/12:30pm 16.6 10.5 10.5 67 3.3 N 33 54 18 29 1014.6 1014.3 0.0
22/12:00pm 16.6 10.8 10.7 68 3.2 NNE 32 52 17 28 1014.8 1014.5 0.0
22/11:56am 16.6 10.7 10.5 67 3.3 NNE 32 52 17 28 1015.0 1014.7 0.0
22/11:30am 17.2 10.7 10.3 64 3.7 N 35 46 19 25 1015.2 1014.9 0.0
22/11:00am 16.6 10.0 10.0 65 3.5 N 35 48 19 26 1015.5 1015.2 0.0
22/10:30am 15.9 8.5 9.8 67 3.2 N 39 54 21 29 1015.4 1015.1 0.0
22/10:00am 15.2 6.9 10.0 71 2.7 N 44 59 24 32 1015.5 1015.2 0.0
22/09:30am 14.9 6.0 10.7 76 2.2 N 48 65 26 35 1015.8 1015.5 0.0
22/09:00am 15.1 5.8 10.5 74 2.4 N 50 61 27 33 1015.8 1015.5 0.0
22/08:30am 14.7 7.8 12.7 88 1.1 NNE 41 56 22 30 1016.1 1015.8 0.0
22/08:00am 15.4 8.0 13.1 86 1.3 NNE 44 59 24 32 1015.9 1015.6 0.0
22/07:30am 14.6 5.8 13.3 92 0.7 NNE 52 67 28 36 1016.0 1015.7 0.0
22/07:00am 14.8 7.6 13.2 90 0.9 NNE 43 59 23 32 1016.3 1016.0 0.0
22/06:30am 14.4 6.8 12.3 87 1.2 NNE 44 59 24 32 1016.2 1015.9 0.0
22/06:00am 14.2 5.7 12.1 87 1.1 NNE 48 61 26 33 1016.1 1015.8 0.0
22/05:30am 14.2 6.4 11.9 86 1.3 NNE 44 59 24 32 1016.2 1015.9 0.0
22/05:00am 13.9 6.0 11.4 85 1.3 NNE 44 57 24 31 1016.6 1016.3 0.0
22/04:30am 13.8 6.6 10.6 81 1.7 NNE 39 50 21 27 1017.1 1016.8 0.0
22/04:00am 13.6 6.6 9.8 78 2.0 NNE 37 50 20 27 1017.6 1017.3 0.0
22/03:30am 13.5 7.4 9.6 77 2.0 NNE 32 46 17 25 1018.0 1017.8 0.0
22/03:00am 13.2 9.2 10.4 83 1.5 NNE 22 43 12 23 1018.1 1017.9 0.0
22/02:30am 13.1 8.9 9.9 81 1.7 NNE 22 41 12 22 1018.4 1018.2 0.0
22/02:00am 12.6 8.8 9.2 80 1.7 NNE 19 32 10 17 1018.6 1018.4 0.0
22/01:30am 11.8 9.1 9.0 83 1.4 NNE 13 20 7 11 1019.2 1018.9 0.0
22/01:00am 11.3 8.4 8.3 82 1.5 NNE 13 17 7 9 1019.6 1019.3 0.0
22/12:30am 10.7 8.9 7.0 78 1.8 N 6 9 3 5 1019.7 1019.4 0.0
22/12:00am 11.5 10.2 7.6 77 1.9 W 4 6 2 3 1019.9 1019.6 0.0
 
Date/Time
EDT
Temp
°C
App
Temp
°C
Dew
Point
°C
Rel
Hum
%
Delta-T
°C
Wind Press
QNH
hPa
Press
MSL
hPa
Rain since
9am
mm
Dir  Spd
km/h
Gust
km/h
Spd
kts
Gust
kts
21/11:30pm 10.9 9.0 6.8 76 2.0 WSW 6 9 3 5 1020.1 1019.8 0.0
21/11:00pm 11.3 9.4 6.8 74 2.2 WSW 6 9 3 5 1020.2 1019.9 0.0
21/10:30pm 11.9 9.9 7.2 73 2.3 WSW 7 15 4 8 1020.4 1020.1 0.0
21/10:00pm 11.8 9.6 7.7 76 2.0 WSW 9 17 5 9 1020.5 1020.2 0.0
21/09:30pm 11.8 9.5 7.5 75 2.1 SW 9 17 5 9 1020.3 1020.0 0.0
21/09:00pm 11.7 8.4 6.6 71 2.4 SW 13 22 7 12 1020.1 1019.8 0.0
21/08:30pm 11.8 8.9 6.5 70 2.5 SW 11 24 6 13 1019.7 1019.4 0.0
21/08:00pm 11.9 6.2 6.6 70 2.5 SW 26 39 14 21 1019.1 1018.8 0.0
21/07:30pm 12.3 7.9 6.4 67 2.8 SSW 19 37 10 20 1018.9 1018.6 0.0
21/07:00pm 12.6 8.1 6.9 68 2.8 SSW 20 39 11 21 1018.5 1018.3 0.0
21/06:30pm 12.8 8.2 6.6 66 3.0 SSW 20 44 11 24 1018.2 1018.0 0.0
21/06:11pm 12.9 6.7 7.8 71 2.5 SW 30 48 16 26 1017.9 1017.6 0.0
21/06:00pm 13.0 5.9 7.9 71 2.5 SW 35 50 19 27 1017.8 1017.5 0.0
21/05:45pm 13.0 7.1 7.7 70 2.6 SSW 28 48 15 26 1017.8 1017.5 0.0
21/05:30pm 13.6 8.7 8.4 71 2.6 SSW 24 41 13 22 1018.0 1017.8 0.0
21/05:03pm 13.8 8.0 7.8 67 3.0 SSW 28 48 15 26 1017.7 1017.4 0.0
21/05:00pm 13.7 8.3 7.9 68 2.9 SSW 26 48 14 26 1017.8 1017.5 0.0
21/04:30pm 13.7 6.9 7.7 67 3.0 SW 33 54 18 29 1017.5 1017.2 0.0
21/04:09pm 13.7 7.9 8.1 69 2.8 SSW 28 54 15 29 1017.6 1017.3 0.0
21/04:00pm 13.8 8.4 7.8 67 3.0 SSW 26 50 14 27 1017.4 1017.1 0.0
21/03:30pm 14.5 8.4 8.2 66 3.2 SSW 30 52 16 28 1017.2 1016.9 0.0
21/03:00pm 14.4 8.2 7.7 64 3.4 SW 30 50 16 27 1017.5 1017.2 0.0
21/02:53pm 14.5 8.5 7.1 61 3.7 SSW 28 50 15 27 1017.5 1017.2 0.0
21/02:30pm 14.6 9.8 7.2 61 3.7 SW 22 37 12 20 1017.4 1017.1 0.0
21/02:00pm 15.7 11.5 7.5 58 4.1 WSW 19 33 10 18 1017.7 1017.4 0.0
21/01:30pm 15.1 12.3 6.9 58 4.1 WSW 11 30 6 16 1017.6 1017.3 0.0
21/01:00pm 14.8 12.2 5.9 55 4.3 NW 9 30 5 16 1017.4 1017.1 0.0
21/12:30pm 13.3 10.8 5.0 57 3.9 NNE 7 22 4 12 1017.3 1017.0 0.0
21/12:00pm 13.2 10.0 5.1 58 3.8 N 11 26 6 14 1017.2 1016.9 0.0
21/11:30am 13.5 11.0 4.9 56 4.0 NNW 7 30 4 16 1017.2 1016.9 0.0
21/11:00am 12.9 8.1 4.8 58 3.8 WSW 19 44 10 24 1017.1 1016.8 0.0
21/10:30am 12.1 9.3 5.3 63 3.2 NW 9 41 5 22 1016.9 1016.6 0.0
21/10:00am 12.0 8.5 5.4 64 3.1 WSW 13 41 7 22 1016.7 1016.4 0.0
21/09:30am 12.9 8.6 5.3 60 3.6 W 17 41 9 22 1016.5 1016.2 0.0
21/09:00am 11.7 8.5 4.9 63 3.1 WSW 11 33 6 18 1016.0 1015.7 2.8
21/08:30am 11.9 8.4 5.3 64 3.1 SSW 13 39 7 21 1015.6 1015.3 2.8
21/08:00am 11.9 6.1 4.4 60 3.4 WSW 24 56 13 30 1015.1 1014.8 2.8
21/07:30am 11.9 6.3 5.5 65 3.0 WSW 24 56 13 30 1014.5 1014.2 2.8
21/07:26am 11.9 6.7 5.3 64 3.1 WSW 22 56 12 30 1014.5 1014.2 2.8
21/07:00am 11.9 7.1 5.8 66 2.9 SW 20 50 11 27 1013.9 1013.6 2.8
21/06:30am 11.8 6.6 5.4 65 3.0 WSW 22 56 12 30 1013.6 1013.3 2.8
21/06:00am 11.7 6.7 6.6 71 2.5 WSW 22 48 12 26 1013.2 1012.9 2.8
21/05:35am 11.2 5.3 7.5 78 1.8 WSW 28 72 15 39 1012.8 1012.5 2.8
21/05:30am 11.1 5.7 8.0 81 1.5 WSW 26 59 14 32 1012.8 1012.5 2.8
21/05:17am 11.1 7.9 8.3 83 1.4 W 15 48 8 26 1012.8 1012.5 2.6
21/05:00am 11.7 7.3 7.6 76 2.0 WSW 20 48 11 26 1012.8 1012.5 2.6
21/04:30am 11.6 4.6 6.9 73 2.3 SW 33 59 18 32 1012.6 1012.3 2.6
21/04:00am 11.7 5.7 7.2 74 2.2 SW 28 59 15 32 1012.4 1012.1 2.6
21/03:30am 11.4 5.1 5.9 69 2.6 SW 28 57 15 31 1012.2 1011.9 2.6
21/03:24am 11.5 6.4 6.2 70 2.5 SW 22 57 12 31 1012.1 1011.8 2.6
21/03:00am 11.4 5.4 5.5 67 2.8 SW 26 56 14 30 1012.0 1011.7 2.6
21/02:36am 11.3 3.1 5.0 65 2.9 SW 37 65 20 35 1011.6 1011.3 2.6
21/02:30am 11.4 3.2 4.8 64 3.0 SW 37 65 20 35 1011.5 1011.2 2.6
21/02:21am 11.3 4.8 4.7 64 3.0 SW 28 65 15 35 1011.6 1011.3 2.6
21/02:00am 11.4 5.4 5.5 67 2.8 WSW 26 59 14 32 1011.5 1011.2 2.6
21/01:45am 11.6 5.2 5.3 65 2.9 WSW 28 63 15 34 1011.4 1011.1 2.6
21/01:30am 11.8 6.6 5.4 65 3.0 WSW 22 50 12 27 1011.3 1011.0 2.6
21/01:02am 11.7 5.5 6.0 68 2.7 WSW 28 67 15 36 1011.2 1010.9 2.6
21/01:00am 11.6 5.7 5.7 67 2.8 WSW 26 67 14 36 1011.2 1010.9 2.6
21/12:49am 11.7 5.5 6.0 68 2.7 SW 28 54 15 29 1011.1 1010.8 2.6
21/12:30am 11.7 6.2 6.0 68 2.7 SW 24 54 13 29 1011.2 1010.9 2.6
21/12:21am 11.7 5.4 5.6 66 2.9 WSW 28 56 15 30 1011.1 1010.8 2.6
21/12:00am 11.8 6.3 5.7 66 2.9 SW 24 65 13 35 1011.1 1010.8 2.6
 
Date/Time
EDT
Temp
°C
App
Temp
°C
Dew
Point
°C
Rel
Hum
%
Delta-T
°C
Wind Press
QNH
hPa
Press
MSL
hPa
Rain since
9am
mm
Dir  Spd
km/h
Gust
km/h
Spd
kts
Gust
kts
20/11:40pm 11.7 5.4 5.8 67 2.8 SW 28 61 15 33 1011.0 1010.7 2.6
20/11:30pm 11.6 5.9 6.7 72 2.4 SW 26 63 14 34 1011.1 1010.8 2.6
20/11:00pm 11.8 2.7 6.1 68 2.7 SW 43 69 23 37 1010.9 1010.6 2.6
20/10:30pm 12.1 3.9 6.4 68 2.7 SW 39 70 21 38 1010.8 1010.4 2.6
20/10:00pm 12.1 3.7 7.4 73 2.3 SSW 41 65 22 35 1010.9 1010.6 2.6
20/09:31pm 11.8 3.0 7.3 74 2.2 SW 43 63 23 34 1010.7 1010.3 2.6
20/09:30pm 11.8 2.8 7.3 74 2.2 SW 44 63 24 34 1010.7 1010.3 2.6
20/09:00pm 11.6 4.6 6.9 73 2.3 SSW 33 54 18 29 1010.4 1010.0 2.6
20/08:30pm 11.5 4.7 7.6 77 1.9 SSW 33 54 18 29 1009.8 1009.5 2.6
20/08:00pm 11.8 4.6 7.5 75 2.1 SSW 35 57 19 31 1009.5 1009.2 2.6
20/07:30pm 11.6 4.7 9.0 84 1.3 SSW 35 56 19 30 1009.2 1008.9 2.6
20/07:00pm 11.5 5.0 8.9 84 1.3 SSW 33 57 18 31 1008.8 1008.5 2.4
20/06:30pm 12.0 5.5 8.8 81 1.6 SSW 33 56 18 30 1008.3 1008.0 2.4
20/06:05pm 12.4 5.6 9.1 80 1.7 SSW 35 56 19 30 1008.3 1008.0 2.4
20/06:00pm 12.6 6.2 9.2 80 1.7 SSW 33 46 18 25 1008.3 1008.0 2.4
20/05:30pm 12.7 7.2 9.3 80 1.7 SSW 28 44 15 24 1008.1 1007.8 2.4
20/05:00pm 13.5 9.1 10.5 82 1.6 SSW 24 39 13 21 1007.8 1007.5 2.4
20/04:30pm 12.8 8.3 10.2 84 1.4 S 24 41 13 22 1007.7 1007.4 2.4
20/04:00pm 12.6 7.7 10.0 84 1.4 S 26 48 14 26 1007.6 1007.3 2.4
20/03:30pm 13.0 8.6 10.4 84 1.4 S 24 44 13 24 1007.3 1006.9 2.4
20/03:00pm 13.6 9.3 10.6 82 1.6 S 24 35 13 19 1007.5 1007.2 2.4
20/02:30pm 12.7 8.7 10.6 87 1.1 SSE 22 41 12 22 1007.6 1007.3 2.4
20/02:00pm 12.9 8.3 11.1 89 1.0 SSE 26 43 14 23 1007.5 1007.2 2.4
20/01:56pm 12.8 7.5 11.2 90 0.9 SSE 30 50 16 27 1007.5 1007.2 2.4
20/01:30pm 12.4 6.7 11.1 92 0.7 SSE 32 50 17 27 1007.2 1006.8 2.4
20/01:27pm 12.5 7.9 11.2 92 0.7 SSE 26 50 14 27 1007.2 1006.8 2.4
20/01:00pm 13.9 10.9 10.7 81 1.7 SSE 17 30 9 16 1007.3 1006.9 0.0
20/12:30pm 15.6 13.6 11.4 76 2.3 SSE 13 26 7 14 1007.5 1007.2 0.0
20/12:00pm 14.6 11.9 10.4 76 2.2 SSE 15 26 8 14 1007.7 1007.4 0.0
20/11:30am 14.3 13.3 11.1 81 1.7 S 7 22 4 12 1007.9 1007.6 0.0
20/11:00am 14.2 12.8 10.8 80 1.8 SSE 9 20 5 11 1007.8 1007.5 0.0
20/10:30am 14.0 12.0 10.2 78 2.0 SSE 11 19 6 10 1007.9 1007.6 0.0
20/10:00am 13.7 11.6 9.7 77 2.1 SSE 11 17 6 9 1008.0 1007.7 0.0
20/09:30am 13.3 12.4 10.5 83 1.5 S 6 13 3 7 1007.9 1007.6 0.0
20/09:00am 12.4 11.2 10.3 87 1.1 SW 7 15 4 8 1007.7 1007.4 0.4
20/08:30am 12.4 11.3 10.1 86 1.2 W 6 9 3 5 1007.7 1007.4 0.4
20/08:00am 11.9 10.7 9.6 86 1.2 WSW 6 9 3 5 1007.4 1007.1 0.4
20/07:30am 11.5 10.1 9.6 88 1.0 W 7 11 4 6 1007.3 1006.9 0.4
20/07:00am 11.3 10.4 9.2 87 1.1 WNW 4 9 2 5 1007.1 1006.7 0.4
20/06:30am 11.4 9.9 8.6 83 1.4 SW 6 7 3 4 1007.0 1006.6 0.4
20/06:00am 11.7 10.1 7.8 77 1.9 SSE 6 9 3 5 1006.7 1006.3 0.4
20/05:30am 11.9 10.5 7.2 73 2.3 WSW 4 7 2 4 1006.7 1006.3 0.4
20/05:00am 11.2 9.8 7.3 77 1.9 W 4 7 2 4 1006.5 1006.1 0.4
20/04:30am 10.9 9.7 8.0 82 1.4 W 4 9 2 5 1006.4 1006.0 0.4
20/04:00am 11.2 9.3 7.7 79 1.7 ENE 7 15 4 8 1006.5 1006.1 0.4
20/03:30am 11.2 10.0 8.1 81 1.5 N 4 13 2 7 1006.5 1006.1 0.4
20/03:00am 11.0 9.4 8.2 83 1.4 W 6 15 3 8 1006.6 1006.2 0.4
20/02:30am 11.0 9.1 6.7 75 2.1 S 6 11 3 6 1006.6 1006.2 0.4
20/02:00am 11.1 9.2 6.6 74 2.2 SE 6 9 3 5 1006.5 1006.1 0.4
20/01:30am 10.8 8.5 5.8 71 2.3 SE 7 11 4 6 1006.4 1006.0 0.4
20/01:00am 11.1 9.7 7.2 77 1.9 SE 4 9 2 5 1006.5 1006.1 0.4
20/12:30am 11.3 9.2 6.0 70 2.5 SSW 6 19 3 10 1006.3 1005.9 0.4
20/12:00am 10.7 8.6 6.8 77 1.9 SW 7 19 4 10 1006.5 1006.1 0.4
 
Date/Time
EDT
Temp
°C
App
Temp
°C
Dew
Point
°C
Rel
Hum
%
Delta-T
°C
Wind Press
QNH
hPa
Press
MSL
hPa
Rain since
9am
mm
Dir  Spd
km/h
Gust
km/h
Spd
kts
Gust
kts
19/11:30pm 10.9 8.9 7.2 78 1.8 SSE 7 17 4 9 1006.4 1006.0 0.4
19/11:00pm 11.3 8.4 6.4 72 2.3 NE 11 15 6 8 1006.6 1006.2 0.4
19/10:30pm 11.0 8.1 6.7 75 2.1 NNW 11 30 6 16 1006.8 1006.4 0.2
19/10:00pm 11.1 8.2 6.6 74 2.2 ENE 11 28 6 15 1006.7 1006.3 0.2
19/09:30pm 12.0 9.6 7.1 72 2.4 NNW 9 24 5 13 1006.4 1006.0 0.0
19/09:00pm 11.8 8.8 7.9 77 1.9 NW 13 26 7 14 1005.9 1005.5 0.0
19/08:30pm 12.2 9.8 8.7 79 1.8 NW 11 22 6 12 1005.5 1005.2 0.0
19/08:00pm 12.8 10.8 8.7 76 2.1 NE 9 22 5 12 1005.2 1004.9 0.0

Other Formats:

Comma delimited format used in spreadsheet applications
http://www.bom.gov.au/fwo/IDT60801/IDT60801.95986.axf

JavaScript Object Notation format (JSON) in row-major order
http://www.bom.gov.au/fwo/IDT60801/IDT60801.95986.json